createdAt,value
2022-08-11T00:02:14.977Z,25.96
2022-08-11T00:04:50.682Z,25.92
2022-08-11T00:07:25.011Z,25.78
2022-08-11T00:09:58.295Z,25.73
2022-08-11T00:12:31.717Z,25.80
2022-08-11T00:15:05.898Z,25.84
2022-08-11T00:17:39.202Z,25.77
2022-08-11T00:20:17.141Z,25.73
2022-08-11T00:22:51.475Z,25.72
2022-08-11T00:25:24.614Z,25.70
2022-08-11T00:27:57.265Z,25.69
2022-08-11T00:30:41.293Z,25.60
2022-08-11T00:33:14.260Z,25.57
2022-08-11T00:35:56.997Z,25.54
2022-08-11T00:38:34.095Z,25.49
2022-08-11T00:41:20.021Z,25.40
2022-08-11T00:44:13.564Z,25.45
2022-08-11T00:47:18.604Z,25.43
2022-08-11T00:50:02.181Z,25.51
2022-08-11T00:52:51.733Z,25.49
2022-08-11T00:55:56.161Z,25.38
2022-08-11T00:59:34.018Z,25.38
2022-08-11T01:02:19.340Z,25.38
2022-08-11T01:05:08.018Z,25.29
2022-08-11T01:08:18.271Z,25.24
2022-08-11T01:11:19.855Z,25.33
2022-08-11T01:14:33.979Z,25.29
2022-08-11T01:17:30.515Z,25.21
2022-08-11T01:20:45.045Z,25.24
2022-08-11T01:24:10.633Z,25.05
2022-08-11T01:27:19.117Z,25.14
2022-08-11T01:30:18.620Z,25.15
2022-08-11T01:33:23.172Z,25.05
2022-08-11T01:36:56.563Z,25.10
2022-08-11T01:40:17.241Z,25.03
2022-08-11T01:43:38.906Z,24.99
2022-08-11T01:46:17.256Z,24.90
2022-08-11T01:50:06.516Z,24.91
2022-08-11T01:52:18.598Z,24.92
2022-08-11T01:55:09.958Z,24.87
2022-08-11T01:57:48.162Z,24.84
2022-08-11T02:00:26.352Z,24.81
2022-08-11T02:03:07.134Z,24.77
2022-08-11T02:06:01.570Z,24.72
2022-08-11T02:08:50.704Z,24.75
2022-08-11T02:11:35.177Z,24.70
2022-08-11T02:14:24.704Z,24.67
2022-08-11T02:17:12.124Z,24.62
2022-08-11T02:20:10.867Z,24.57
2022-08-11T02:24:05.881Z,24.57
2022-08-11T02:26:17.260Z,24.57
2022-08-11T02:29:06.587Z,24.50
2022-08-11T02:32:25.249Z,24.49
2022-08-11T02:35:11.184Z,24.45
2022-08-11T02:37:52.847Z,24.44
2022-08-11T02:40:35.452Z,24.36
2022-08-11T02:43:24.930Z,24.34
2022-08-11T02:46:19.922Z,24.37
2022-08-11T02:49:18.468Z,24.29
2022-08-11T02:52:06.126Z,24.34
2022-08-11T02:54:46.872Z,24.30
2022-08-11T02:57:26.380Z,24.28
2022-08-11T03:00:08.315Z,24.22
2022-08-11T03:03:09.156Z,24.20
2022-08-11T03:06:05.902Z,24.19
2022-08-11T03:08:55.618Z,24.14
2022-08-11T03:12:09.594Z,24.09
2022-08-11T03:15:19.811Z,24.06
2022-08-11T03:18:05.309Z,24.12
2022-08-11T03:20:45.748Z,24.00
2022-08-11T03:23:30.824Z,23.95
2022-08-11T03:26:14.796Z,23.87
2022-08-11T03:28:55.065Z,23.88
2022-08-11T03:31:31.365Z,23.92
2022-08-11T03:34:08.360Z,23.85
2022-08-11T03:37:39.021Z,23.82
2022-08-11T03:40:48.698Z,23.77
2022-08-11T03:43:39.125Z,23.77
2022-08-11T03:46:33.794Z,23.73
2022-08-11T03:49:16.544Z,23.69
2022-08-11T03:51:54.283Z,23.67
2022-08-11T03:54:39.634Z,23.63
2022-08-11T03:57:50.449Z,23.66
2022-08-11T04:00:55.074Z,23.60
2022-08-11T04:03:54.531Z,23.57
2022-08-11T04:06:55.084Z,23.55
2022-08-11T04:10:07.669Z,23.47
2022-08-11T04:13:04.017Z,23.37
2022-08-11T04:16:12.258Z,23.35
2022-08-11T04:19:18.160Z,23.33
2022-08-11T04:22:09.290Z,23.30
2022-08-11T04:25:22.421Z,23.31
2022-08-11T04:28:28.861Z,23.25
2022-08-11T04:31:50.709Z,23.22
2022-08-11T04:34:38.062Z,23.20
2022-08-11T04:37:35.266Z,23.19
2022-08-11T04:40:38.664Z,23.16
2022-08-11T04:44:05.579Z,23.14
2022-08-11T04:47:09.639Z,23.13
2022-08-11T04:50:18.228Z,23.12
2022-08-11T04:53:31.770Z,23.07
2022-08-11T04:56:30.226Z,23.00
2022-08-11T04:59:58.928Z,22.98
2022-08-11T05:03:07.183Z,23.04
2022-08-11T05:06:30.579Z,23.05
2022-08-11T05:09:21.143Z,23.07
2022-08-11T05:12:13.639Z,23.09
2022-08-11T05:15:08.358Z,22.99
2022-08-11T05:18:14.272Z,22.99
2022-08-11T05:21:08.895Z,22.97
2022-08-11T05:24:04.369Z,22.94
2022-08-11T05:27:03.245Z,22.89
2022-08-11T05:30:04.642Z,22.86
2022-08-11T05:33:01.960Z,22.87
2022-08-11T05:36:00.492Z,22.83
2022-08-11T05:38:55.274Z,22.88
2022-08-11T05:41:50.401Z,22.80
2022-08-11T05:44:44.081Z,22.77
2022-08-11T05:47:42.820Z,22.78
2022-08-11T05:50:37.574Z,22.80
2022-08-11T05:53:30.858Z,22.77
2022-08-11T05:56:19.949Z,22.77
2022-08-11T05:58:54.546Z,22.73
2022-08-11T06:01:32.013Z,22.79
2022-08-11T06:04:17.234Z,22.74
2022-08-11T06:06:57.676Z,22.83
2022-08-11T06:09:34.572Z,22.85
2022-08-11T06:12:10.027Z,22.71
2022-08-11T06:14:45.107Z,22.72
2022-08-11T06:17:25.260Z,22.77
2022-08-11T06:20:06.968Z,22.67
2022-08-11T06:22:42.944Z,22.72
2022-08-11T06:25:16.924Z,22.65
2022-08-11T06:27:56.356Z,22.68
2022-08-11T06:30:42.777Z,22.72
2022-08-11T06:33:19.486Z,22.67
2022-08-11T06:36:02.655Z,22.66
2022-08-11T06:38:48.478Z,22.70
2022-08-11T06:41:33.158Z,22.76
2022-08-11T06:44:19.862Z,22.86
2022-08-11T06:46:56.150Z,22.89
2022-08-11T06:49:55.639Z,22.93
2022-08-11T06:52:45.188Z,22.98
2022-08-11T06:55:57.705Z,23.07
2022-08-11T06:58:51.838Z,23.21
2022-08-11T07:01:37.567Z,23.29
2022-08-11T07:04:11.414Z,23.32
2022-08-11T07:07:26.933Z,23.47
2022-08-11T07:10:46.831Z,23.53
2022-08-11T07:13:45.499Z,23.67
2022-08-11T07:16:26.492Z,23.78
2022-08-11T07:19:20.950Z,23.82
2022-08-11T07:22:14.122Z,23.98
2022-08-11T07:25:16.644Z,24.19
2022-08-11T07:28:15.173Z,24.22
2022-08-11T07:30:51.939Z,24.31
2022-08-11T07:34:07.220Z,24.45
2022-08-11T07:36:29.547Z,24.60
2022-08-11T07:39:04.415Z,24.69
2022-08-11T07:41:39.186Z,24.86
2022-08-11T07:44:12.381Z,24.98
2022-08-11T07:47:14.197Z,25.11
2022-08-11T07:50:08.865Z,25.22
2022-08-11T07:52:42.217Z,25.40
2022-08-11T07:55:18.256Z,25.53
2022-08-11T07:58:15.803Z,25.68
2022-08-11T08:01:15.984Z,25.74
2022-08-11T08:04:12.704Z,25.88
2022-08-11T08:07:04.111Z,26.07
2022-08-11T08:09:55.003Z,26.29
2022-08-11T08:12:46.229Z,26.43
2022-08-11T08:15:39.839Z,26.46
2022-08-11T08:18:26.126Z,26.67
2022-08-11T08:21:11.982Z,26.80
2022-08-11T08:23:47.792Z,26.87
2022-08-11T08:26:51.509Z,26.99
2022-08-11T08:29:42.680Z,27.22
2022-08-11T08:32:18.255Z,27.44
2022-08-11T08:34:52.037Z,27.58
2022-08-11T08:37:44.960Z,27.79
2022-08-11T08:40:20.674Z,27.83
2022-08-11T08:42:55.955Z,27.95
2022-08-11T08:45:29.092Z,28.08
2022-08-11T08:48:06.117Z,28.13
2022-08-11T08:51:02.297Z,28.24
2022-08-11T08:53:52.351Z,28.49
2022-08-11T08:56:33.646Z,28.73
2022-08-11T08:59:08.395Z,28.77
2022-08-11T09:01:44.825Z,28.95
2022-08-11T09:04:21.024Z,29.05
2022-08-11T09:06:54.908Z,29.32
2022-08-11T09:09:28.658Z,29.42
2022-08-11T09:12:05.134Z,29.61
2022-08-11T09:14:59.585Z,29.72
2022-08-11T09:17:35.683Z,29.84
2022-08-11T09:20:14.214Z,29.99
2022-08-11T09:26:19.275Z,30.32
2022-08-11T09:28:53.631Z,30.52
2022-08-11T09:31:26.812Z,30.65
2022-08-11T09:34:00.513Z,30.79
2022-08-11T09:36:53.817Z,30.93
2022-08-11T09:39:46.690Z,30.97
2022-08-11T09:42:23.709Z,31.17
2022-08-11T09:44:55.778Z,31.33
2022-08-11T09:47:31.635Z,31.45
2022-08-11T09:50:07.243Z,31.40
2022-08-11T09:52:57.186Z,31.60
2022-08-11T09:55:35.391Z,31.73
2022-08-11T09:58:42.725Z,31.67
2022-08-11T10:01:27.182Z,31.98
2022-08-11T10:04:04.416Z,32.18
2022-08-11T10:06:57.800Z,32.34
2022-08-11T10:09:39.148Z,32.42
2022-08-11T10:12:15.570Z,32.56
2022-08-11T10:15:11.371Z,32.67
2022-08-11T10:18:07.230Z,32.70
2022-08-11T10:20:40.713Z,32.97
2022-08-11T10:23:34.694Z,33.19
2022-08-11T10:26:54.457Z,33.18
2022-08-11T10:29:49.794Z,33.46
2022-08-11T10:32:57.910Z,33.51
2022-08-11T10:35:33.646Z,33.65
2022-08-11T10:38:09.935Z,33.86
2022-08-11T10:40:47.358Z,33.99
2022-08-11T10:44:01.601Z,33.80
2022-08-11T10:46:32.398Z,34.02
2022-08-11T10:49:05.648Z,34.27
2022-08-11T10:51:58.572Z,34.39
2022-08-11T10:54:52.152Z,34.46
2022-08-11T10:57:43.193Z,34.57
2022-08-11T11:00:38.499Z,34.72
2022-08-11T11:03:22.936Z,34.98
2022-08-11T11:06:27.446Z,35.04
2022-08-11T11:09:04.015Z,35.24
2022-08-11T11:12:01.250Z,35.30
2022-08-11T11:14:58.341Z,35.54
2022-08-11T11:17:54.107Z,35.59
2022-08-11T11:20:36.612Z,35.67
2022-08-11T11:23:17.730Z,35.76
2022-08-11T11:26:10.276Z,35.85
2022-08-11T11:28:57.903Z,36.02
2022-08-11T11:31:39.674Z,35.82
2022-08-11T11:34:30.430Z,35.75
2022-08-11T11:37:04.429Z,36.04
2022-08-11T11:39:38.219Z,36.01
2022-08-11T11:42:12.299Z,35.93
2022-08-11T11:44:47.878Z,36.06
2022-08-11T11:47:22.945Z,36.44
2022-08-11T11:49:57.243Z,36.24
2022-08-11T11:52:30.644Z,36.40
2022-08-11T11:55:05.247Z,36.51
2022-08-11T11:57:59.264Z,36.48
2022-08-11T12:00:53.864Z,36.71
2022-08-11T12:03:27.645Z,36.79
2022-08-11T12:06:03.679Z,36.91
2022-08-11T12:08:38.780Z,37.05
2022-08-11T12:11:31.080Z,37.03
2022-08-11T12:14:10.464Z,36.78
2022-08-11T12:16:47.047Z,36.84
2022-08-11T12:19:23.956Z,37.06
2022-08-11T12:22:17.286Z,37.32
2022-08-11T12:25:07.627Z,37.39
2022-08-11T12:27:41.074Z,37.59
2022-08-11T12:30:14.685Z,37.60
2022-08-11T12:32:47.905Z,37.73
2022-08-11T12:35:20.811Z,37.54
2022-08-11T12:38:04.919Z,37.74
2022-08-11T12:41:16.835Z,37.92
2022-08-11T12:44:08.097Z,37.76
2022-08-11T12:46:45.072Z,37.94
2022-08-11T12:49:44.866Z,38.37
2022-08-11T12:52:22.361Z,38.26
2022-08-11T12:55:01.119Z,38.33
2022-08-11T12:57:55.713Z,38.30
2022-08-11T13:00:48.527Z,38.68
2022-08-11T13:03:40.130Z,38.34
2022-08-11T13:06:14.202Z,38.52
2022-08-11T13:08:48.287Z,38.79
2022-08-11T13:11:56.822Z,38.88
2022-08-11T13:14:32.885Z,38.78
2022-08-11T13:17:43.691Z,38.97
2022-08-11T13:20:20.133Z,38.90
2022-08-11T13:22:55.364Z,38.82
2022-08-11T13:25:31.607Z,38.92
2022-08-11T13:28:07.295Z,38.91
2022-08-11T13:31:07.082Z,38.95
2022-08-11T13:33:43.124Z,39.06
2022-08-11T13:36:20.521Z,38.97
2022-08-11T13:38:55.782Z,38.99
2022-08-11T13:41:39.549Z,39.29
2022-08-11T13:44:21.609Z,39.47
2022-08-11T13:47:01.224Z,39.51
2022-08-11T13:49:39.937Z,39.37
2022-08-11T13:52:17.094Z,39.47
2022-08-11T13:54:53.414Z,39.57
2022-08-11T13:58:08.650Z,39.67
2022-08-11T14:00:26.879Z,39.74
2022-08-11T14:03:01.767Z,39.88
2022-08-11T14:05:45.895Z,39.98
2022-08-11T14:08:37.685Z,39.97
2022-08-11T14:12:21.965Z,40.02
2022-08-11T14:14:27.595Z,40.25
2022-08-11T14:17:07.417Z,40.36
2022-08-11T14:19:46.209Z,40.17
2022-08-11T14:22:22.307Z,39.79
2022-08-11T14:24:55.782Z,40.13
2022-08-11T14:28:32.695Z,40.29
2022-08-11T14:30:41.524Z,40.39
2022-08-11T14:33:17.350Z,40.57
2022-08-11T14:35:53.270Z,40.71
2022-08-11T14:38:26.247Z,40.79
2022-08-11T14:41:16.719Z,40.59
2022-08-11T14:44:14.247Z,40.55
2022-08-11T14:47:23.258Z,40.50
2022-08-11T14:50:10.388Z,40.61
2022-08-11T14:52:50.917Z,40.81
2022-08-11T14:55:43.019Z,40.89
2022-08-11T14:58:19.230Z,40.84
2022-08-11T15:00:54.458Z,40.90
2022-08-11T15:03:28.512Z,41.03
2022-08-11T15:06:06.237Z,40.92
2022-08-11T15:08:56.274Z,41.17
2022-08-11T15:11:49.065Z,41.21
2022-08-11T15:14:36.010Z,41.24
2022-08-11T15:17:10.654Z,41.09
2022-08-11T15:20:06.981Z,41.17
2022-08-11T15:23:00.939Z,41.17
2022-08-11T15:25:36.981Z,41.21
2022-08-11T15:28:29.760Z,41.30
2022-08-11T15:31:20.378Z,41.33
2022-08-11T15:34:14.796Z,41.39
2022-08-11T15:37:13.995Z,40.97
2022-08-11T15:40:08.391Z,41.10
2022-08-11T15:43:29.022Z,41.20
2022-08-11T15:46:12.968Z,40.92
2022-08-11T15:48:49.348Z,41.04
2022-08-11T15:51:31.476Z,40.63
2022-08-11T15:54:11.373Z,40.78
2022-08-11T15:56:49.576Z,40.79
2022-08-11T15:59:43.779Z,40.96
2022-08-11T16:02:39.308Z,40.85
2022-08-11T16:05:45.769Z,40.80
2022-08-11T16:08:09.180Z,40.83
2022-08-11T16:10:46.788Z,40.55
2022-08-11T16:13:42.952Z,40.79
2022-08-11T16:16:18.636Z,40.58
2022-08-11T16:18:56.565Z,40.40
2022-08-11T16:21:39.171Z,39.99
2022-08-11T16:27:05.618Z,39.98
2022-08-11T16:27:14.083Z,40.19
2022-08-11T16:29:51.608Z,40.28
2022-08-11T16:32:27.133Z,40.39
2022-08-11T16:35:20.709Z,40.18
2022-08-11T16:38:12.751Z,40.24
2022-08-11T16:40:47.988Z,40.01
2022-08-11T16:43:41.012Z,39.69
2022-08-11T16:46:35.729Z,39.36
2022-08-11T16:49:12.181Z,39.03
2022-08-11T16:51:45.827Z,38.88
2022-08-11T16:54:19.088Z,38.96
2022-08-11T16:56:53.809Z,39.00
2022-08-11T16:59:30.681Z,38.93
2022-08-11T17:02:10.637Z,38.87
2022-08-11T17:05:09.043Z,38.72
2022-08-11T17:08:09.188Z,38.64
2022-08-11T17:11:06.837Z,38.53
2022-08-11T17:13:44.567Z,38.35
2022-08-11T17:16:22.784Z,38.10
2022-08-11T17:19:00.596Z,37.97
2022-08-11T17:21:59.966Z,37.82
2022-08-11T17:24:37.248Z,37.65
2022-08-11T17:27:16.619Z,37.50
2022-08-11T17:29:54.790Z,37.41
2022-08-11T17:32:55.587Z,37.32
2022-08-11T17:35:35.257Z,37.21
2022-08-11T17:38:12.451Z,37.11
2022-08-11T17:41:02.834Z,37.05
2022-08-11T17:43:53.769Z,36.88
2022-08-11T17:46:45.127Z,36.84
2022-08-11T17:49:20.348Z,36.69
2022-08-11T17:52:12.545Z,36.61
2022-08-11T17:55:06.046Z,36.52
2022-08-11T17:58:00.112Z,36.44
2022-08-11T18:00:33.497Z,36.28
2022-08-11T18:03:24.211Z,36.17
2022-08-11T18:05:58.204Z,36.02
2022-08-11T18:08:52.235Z,35.92
2022-08-11T18:12:06.603Z,35.82
2022-08-11T18:14:56.304Z,35.72
2022-08-11T18:17:46.853Z,35.66
2022-08-11T18:20:37.741Z,35.55
2022-08-11T18:23:46.440Z,35.41
2022-08-11T18:26:42.143Z,35.35
2022-08-11T18:29:42.148Z,35.32
2022-08-11T18:32:49.550Z,35.18
2022-08-11T18:35:41.758Z,35.07
2022-08-11T18:38:34.956Z,35.01
2022-08-11T18:41:28.510Z,34.89
2022-08-11T18:44:22.829Z,34.84
2022-08-11T18:47:15.441Z,34.77
2022-08-11T18:50:12.111Z,34.68
2022-08-11T18:53:10.505Z,34.60
2022-08-11T18:56:03.719Z,34.46
2022-08-11T18:58:56.163Z,34.33
2022-08-11T19:01:51.256Z,34.26
2022-08-11T19:04:42.477Z,34.23
2022-08-11T19:07:35.546Z,34.12
2022-08-11T19:10:27.089Z,34.08
2022-08-11T19:13:19.098Z,34.03
2022-08-11T19:16:10.272Z,33.89
2022-08-11T19:19:05.370Z,33.84
2022-08-11T19:21:58.099Z,33.72
2022-08-11T19:24:49.328Z,33.68
2022-08-11T19:27:41.919Z,33.58
2022-08-11T19:30:32.943Z,33.57
2022-08-11T19:34:02.372Z,33.47
2022-08-11T19:36:37.518Z,33.37
2022-08-11T19:39:28.609Z,33.35
2022-08-11T19:42:19.661Z,33.23
2022-08-11T19:45:10.257Z,33.19
2022-08-11T19:48:30.051Z,33.10
2022-08-11T19:51:14.243Z,32.98
2022-08-11T19:54:08.053Z,32.93
2022-08-11T19:57:00.077Z,32.94
2022-08-11T19:59:52.632Z,32.88
2022-08-11T20:02:43.134Z,32.80
2022-08-11T20:05:33.471Z,32.69
2022-08-11T20:08:25.528Z,32.66
2022-08-11T20:11:18.380Z,32.65
2022-08-11T20:14:13.812Z,32.57
2022-08-11T20:17:05.718Z,32.37
2022-08-11T20:22:50.782Z,32.33
2022-08-11T20:25:43.764Z,32.21
2022-08-11T20:28:38.018Z,32.13
2022-08-11T20:31:30.189Z,32.08
2022-08-11T20:34:21.661Z,31.96
2022-08-11T20:37:13.425Z,31.89
2022-08-11T20:40:05.538Z,31.92
2022-08-11T20:42:59.026Z,31.81
2022-08-11T20:45:56.715Z,31.77
2022-08-11T20:48:50.755Z,31.60
2022-08-11T20:51:41.687Z,31.58
2022-08-11T20:54:42.953Z,31.41
2022-08-11T20:58:04.139Z,31.42
2022-08-11T21:00:47.758Z,31.27
2022-08-11T21:03:45.239Z,31.21
2022-08-11T21:06:47.459Z,31.12
2022-08-11T21:09:58.511Z,31.23
2022-08-11T21:12:55.398Z,31.05
2022-08-11T21:16:02.830Z,30.99
2022-08-11T21:18:58.082Z,31.03
2022-08-11T21:21:50.550Z,30.90
2022-08-11T21:24:49.257Z,30.87
2022-08-11T21:27:41.042Z,30.73
2022-08-11T21:30:32.137Z,30.68
2022-08-11T21:33:22.738Z,30.63
2022-08-11T21:36:14.400Z,30.46
2022-08-11T21:39:06.981Z,30.31
2022-08-11T21:41:58.623Z,30.29
2022-08-11T21:44:49.334Z,30.33
2022-08-11T21:47:44.281Z,30.43
2022-08-11T21:50:35.008Z,30.27
2022-08-11T21:53:28.017Z,30.16
2022-08-11T21:56:20.047Z,30.13
2022-08-11T21:59:12.152Z,30.04
2022-08-11T22:02:03.798Z,29.86
2022-08-11T22:04:55.366Z,29.84
2022-08-11T22:07:47.161Z,29.78
2022-08-11T22:10:42.312Z,29.73
2022-08-11T22:13:33.586Z,29.75
2022-08-11T22:16:24.500Z,29.65
2022-08-11T22:19:20.017Z,29.71
2022-08-11T22:22:11.056Z,29.68
2022-08-11T22:25:03.029Z,29.54
2022-08-11T22:28:07.557Z,29.52
2022-08-11T22:30:58.052Z,29.44
2022-08-11T22:34:02.883Z,29.44
2022-08-11T22:36:54.866Z,29.38
2022-08-11T22:40:02.789Z,29.36
2022-08-11T22:42:53.607Z,29.29
2022-08-11T22:45:45.563Z,29.16
2022-08-11T22:48:37.699Z,29.05
2022-08-11T22:51:28.699Z,29.05
2022-08-11T22:54:21.208Z,28.95
2022-08-11T22:57:12.328Z,28.92
2022-08-11T23:00:04.307Z,28.79
2022-08-11T23:02:56.558Z,28.84
2022-08-11T23:05:47.550Z,28.79
2022-08-11T23:08:38.980Z,28.70
2022-08-11T23:12:04.750Z,28.75
2022-08-11T23:14:40.194Z,28.66
2022-08-11T23:17:31.500Z,28.67
2022-08-11T23:20:27.829Z,28.61
2022-08-11T23:23:30.906Z,28.61
2022-08-11T23:26:22.742Z,28.56
2022-08-11T23:29:13.094Z,28.53
2022-08-11T23:32:05.678Z,28.49
2022-08-11T23:35:38.110Z,28.42
2022-08-11T23:38:14.459Z,28.39
2022-08-11T23:41:05.138Z,28.28
2022-08-11T23:43:55.586Z,28.34
2022-08-11T23:46:46.050Z,28.31
2022-08-11T23:49:37.045Z,28.27
2022-08-11T23:52:28.755Z,28.26
2022-08-11T23:55:21.159Z,28.22
2022-08-11T23:58:12.229Z,28.13
